Terminal Aerodrome Forecast
Issued by NWS

Home | Current Version | Previous Version | Text Only | Print | Product List | Glossary On
Versions: 1 2 3 4 5 6 7 8 9 10 11 12 13 14 15 16 17 18 19
000
FTUS46 KSEW 242300
TAFOLM
TAF
KOLM 242331Z 2500/2524 21005KT P6SM SCT022 OVC035
     FM250300 23003KT 4SM BR SCT025 BKN050
     FM250900 00000KT 1/2SM FG OVC001
     FM252100 00000KT P6SM SCT250=

USA.gov is the U.S. government's official web portal to all federal, state and local government web resources and services.